Terminal Aerodrome Forecast
Issued by NWS

Home | Current Version | Previous Version | Text Only | Print | Product List | Glossary On
Versions: 1 2 3 4 5 6 7 8 9 10 11 12
000
FTPA31 PHFO 191731
TAFHLI
TAF
PHLI 191731Z 1918/2018 05018KT P6SM VCSH SCT025 BKN040
     FM192000 05020G25KT P6SM VCSH SCT025 BKN040
     FM201200 05016KT P6SM VCSH SCT025 BKN040=

USA.gov is the U.S. government's official web portal to all federal, state and local government web resources and services.